Time;durP1;ratioP1;P1;durP2;ratioP2;P2;SDS_P1;SDS_P2;PMS_P1;PMS_P2;Temp;Humidity;BMP_temperature;BMP_pressure;BME280_temperature;BME280_humidity;BME280_pressure;Samples;Min_cycle;Max_cycle;Signal;HPM_P1;HPM_P2
2022/07/15 00:01:33;;;;;;;;;;;24.80;44.30;;;;;;5034338;28;20373;-63
2022/07/15 00:03:59;;;;;;;;;;;24.80;44.30;;;;;;5033939;28;19928;-60
2022/07/15 00:06:25;;;;;;;;;;;24.90;44.10;;;;;;5027269;28;19917;-58
2022/07/15 00:08:50;;;;;;;;;;;24.80;44.00;;;;;;5026576;28;19917;-57
2022/07/15 00:11:16;;;;;;;;;;;24.80;44.20;;;;;;5034775;28;20247;-58
2022/07/15 00:13:42;;;;;;;;;;;25.00;43.90;;;;;;5035058;28;19936;-58
2022/07/15 00:16:07;;;;;;;;;;;25.00;43.30;;;;;;5035637;28;19970;-61
2022/07/15 00:18:33;;;;;;;;;;;25.00;43.40;;;;;;5036800;28;19909;-58
2022/07/15 00:20:58;;;;;;;;;;;25.10;43.60;;;;;;5035297;28;19984;-58
2022/07/15 00:23:24;;;;;;;;;;;25.10;43.50;;;;;;5040976;28;19923;-58
2022/07/15 00:25:49;;;;;;;;;;;25.10;43.40;;;;;;5018427;28;19999;-59
2022/07/15 00:28:15;;;;;;;;;;;25.20;43.20;;;;;;5035550;28;19967;-58
2022/07/15 00:30:42;;;;;;;;;;;25.20;43.10;;;;;;5026225;28;19941;-58
2022/07/15 00:33:09;;;;;;;;;;;25.20;42.90;;;;;;5032087;28;19913;-57
2022/07/15 00:35:35;;;;;;;;;;;25.30;42.90;;;;;;5035289;28;19909;-61
2022/07/15 00:38:01;;;;;;;;;;;25.30;42.60;;;;;;5033881;28;19909;-60
2022/07/15 00:40:27;;;;;;;;;;;25.30;42.70;;;;;;5033558;28;20370;-59
2022/07/15 00:42:52;;;;;;;;;;;25.20;42.80;;;;;;5033440;28;19910;-57
2022/07/15 00:45:23;;;;;;;;;;;25.20;43.10;;;;;;5033195;28;19924;-61
2022/07/15 00:47:49;;;;;;;;;;;25.20;42.80;;;;;;5033234;28;19913;-59
2022/07/15 00:50:15;;;;;;;;;;;25.20;42.90;;;;;;5033161;28;19959;-59
2022/07/15 00:52:44;;;;;;;;;;;25.10;43.40;;;;;;5033568;28;19998;-59
2022/07/15 00:55:10;;;;;;;;;;;24.90;43.40;;;;;;5033376;28;20284;-59
2022/07/15 00:57:37;;;;;;;;;;;25.00;43.30;;;;;;5033288;28;19913;-59
2022/07/15 01:00:04;;;;;;;;;;;24.90;43.30;;;;;;5033134;28;19925;-60
2022/07/15 01:02:30;;;;;;;;;;;24.70;43.80;;;;;;5033168;28;19909;-59
2022/07/15 01:04:56;;;;;;;;;;;24.50;44.20;;;;;;5032886;28;20435;-59
2022/07/15 01:07:22;;;;;;;;;;;24.60;44.30;;;;;;5019506;28;19914;-59
2022/07/15 01:09:47;;;;;;;;;;;24.70;44.10;;;;;;5032916;28;20297;-59
2022/07/15 01:12:13;;;;;;;;;;;24.60;44.30;;;;;;5032904;28;20373;-59
2022/07/15 01:14:38;;;;;;;;;;;24.70;44.50;;;;;;5032655;28;20365;-59
2022/07/15 01:17:08;;;;;;;;;;;24.80;44.30;;;;;;5033227;28;19917;-59
2022/07/15 01:19:34;;;;;;;;;;;24.70;44.40;;;;;;5030460;28;20380;-60
2022/07/15 01:21:59;;;;;;;;;;;24.50;45.00;;;;;;5021272;28;19913;-59
2022/07/15 01:24:25;;;;;;;;;;;24.20;45.80;;;;;;5014606;28;20374;-61
2022/07/15 01:26:50;;;;;;;;;;;24.00;46.30;;;;;;5032808;28;19964;-59
2022/07/15 01:29:16;;;;;;;;;;;24.10;46.10;;;;;;5032647;28;19909;-58
2022/07/15 01:31:41;;;;;;;;;;;24.00;46.60;;;;;;5032465;28;19924;-60
2022/07/15 01:34:07;;;;;;;;;;;24.30;46.40;;;;;;5032527;28;19956;-59
2022/07/15 01:36:33;;;;;;;;;;;24.40;45.80;;;;;;5032327;28;19996;-60
2022/07/15 01:38:59;;;;;;;;;;;24.50;45.30;;;;;;5032600;28;20008;-59
2022/07/15 01:41:24;;;;;;;;;;;24.50;45.40;;;;;;5032272;28;19913;-59
2022/07/15 01:43:50;;;;;;;;;;;24.50;45.40;;;;;;5032350;28;19917;-59
2022/07/15 01:46:15;;;;;;;;;;;24.40;45.40;;;;;;5032386;28;19909;-59
2022/07/15 01:51:25;;;;;;;;;;;24.40;45.20;;;;;;4586108;28;20404;-57
2022/07/15 01:53:51;;;;;;;;;;;24.50;45.10;;;;;;4186429;28;20505;-57
2022/07/15 01:56:16;;;;;;;;;;;24.50;45.20;;;;;;4174922;28;20549;-57
2022/07/15 01:58:42;;;;;;;;;;;24.30;45.50;;;;;;5032414;28;20014;-59
2022/07/15 02:01:07;;;;;;;;;;;24.20;45.60;;;;;;5031984;28;19917;-59
2022/07/15 02:03:33;;;;;;;;;;;24.10;46.20;;;;;;5032027;28;19921;-62
2022/07/15 02:05:59;;;;;;;;;;;24.10;46.10;;;;;;5029632;28;19921;-57
2022/07/15 02:08:24;;;;;;;;;;;24.10;46.20;;;;;;5020645;28;19920;-62
2022/07/15 02:10:50;;;;;;;;;;;24.00;46.70;;;;;;5032432;28;19943;-59
2022/07/15 02:13:16;;;;;;;;;;;23.80;47.00;;;;;;5032043;28;19952;-60
2022/07/15 02:15:42;;;;;;;;;;;23.70;47.80;;;;;;5032185;28;20007;-59
2022/07/15 02:18:10;;;;;;;;;;;23.70;47.70;;;;;;5032056;28;19909;-57
2022/07/15 02:20:35;;;;;;;;;;;23.60;48.00;;;;;;5035574;28;19917;-58
2022/07/15 02:23:01;;;;;;;;;;;23.50;48.30;;;;;;5032966;28;19920;-58
2022/07/15 02:25:28;;;;;;;;;;;23.50;48.60;;;;;;5032050;28;19913;-58
2022/07/15 02:27:58;;;;;;;;;;;23.50;48.70;;;;;;5031799;28;19913;-58
2022/07/15 02:30:24;;;;;;;;;;;23.60;48.80;;;;;;5033639;28;19913;-59
2022/07/15 02:32:50;;;;;;;;;;;23.50;48.80;;;;;;5035996;28;20362;-58
2022/07/15 02:35:16;;;;;;;;;;;23.50;48.50;;;;;;5035764;28;19919;-58
2022/07/15 02:37:42;;;;;;;;;;;23.60;48.20;;;;;;5035799;28;19996;-57
2022/07/15 02:40:08;;;;;;;;;;;23.50;48.20;;;;;;5036206;28;19916;-58
2022/07/15 02:42:34;;;;;;;;;;;23.50;47.90;;;;;;5036053;28;19909;-57
2022/07/15 02:44:59;;;;;;;;;;;23.50;47.80;;;;;;5035454;28;19921;-59
2022/07/15 02:47:25;;;;;;;;;;;23.60;47.70;;;;;;5035675;28;19960;-59
2022/07/15 02:49:50;;;;;;;;;;;23.90;47.60;;;;;;5035651;28;19909;-58
2022/07/15 02:52:16;;;;;;;;;;;24.10;47.20;;;;;;5035577;28;19917;-58
2022/07/15 02:54:42;;;;;;;;;;;24.10;46.20;;;;;;5035416;28;19916;-58
2022/07/15 02:57:07;;;;;;;;;;;24.20;46.30;;;;;;5017514;28;19909;-59
2022/07/15 02:59:33;;;;;;;;;;;24.30;46.20;;;;;;5035466;28;20396;-58
2022/07/15 03:01:59;;;;;;;;;;;24.30;46.00;;;;;;5035490;28;19910;-59
2022/07/15 03:04:24;;;;;;;;;;;24.40;46.00;;;;;;5035131;28;19921;-58
2022/07/15 03:06:50;;;;;;;;;;;24.20;45.80;;;;;;5025916;28;19920;-60
2022/07/15 03:09:15;;;;;;;;;;;24.20;46.00;;;;;;5030620;28;19916;-59
2022/07/15 03:11:41;;;;;;;;;;;24.30;46.00;;;;;;5035293;28;20353;-57
2022/07/15 03:14:06;;;;;;;;;;;24.40;45.80;;;;;;5035195;28;20285;-58
2022/07/15 03:16:33;;;;;;;;;;;24.50;45.50;;;;;;5034886;28;19915;-60
2022/07/15 03:18:59;;;;;;;;;;;24.50;45.10;;;;;;5035341;28;20281;-60
2022/07/15 03:21:24;;;;;;;;;;;24.60;45.10;;;;;;5034941;28;20012;-58
2022/07/15 03:23:50;;;;;;;;;;;24.60;44.90;;;;;;5034876;28;19983;-58
2022/07/15 03:26:15;;;;;;;;;;;24.60;44.80;;;;;;5035093;28;19916;-57
2022/07/15 03:28:41;;;;;;;;;;;24.50;44.70;;;;;;5034942;28;20332;-57
2022/07/15 03:31:07;;;;;;;;;;;24.50;45.30;;;;;;5034894;28;19920;-58
2022/07/15 03:33:32;;;;;;;;;;;24.50;44.90;;;;;;5029425;28;19916;-59
2022/07/15 03:35:58;;;;;;;;;;;24.40;45.00;;;;;;5026233;28;19955;-59
2022/07/15 03:38:23;;;;;;;;;;;24.50;45.00;;;;;;5034568;28;20000;-59
2022/07/15 03:40:49;;;;;;;;;;;24.50;44.90;;;;;;5034366;28;19909;-58
2022/07/15 03:43:15;;;;;;;;;;;24.50;44.40;;;;;;5033805;28;19963;-58
2022/07/15 03:45:40;;;;;;;;;;;24.50;44.40;;;;;;5034628;28;19941;-58
2022/07/15 03:48:06;;;;;;;;;;;24.50;44.20;;;;;;5034588;28;19909;-62
2022/07/15 03:50:32;;;;;;;;;;;24.40;44.00;;;;;;5034886;28;19909;-58
2022/07/15 03:52:57;;;;;;;;;;;24.40;44.20;;;;;;5034490;28;19913;-62
2022/07/15 03:55:23;;;;;;;;;;;24.40;44.00;;;;;;5034338;28;19952;-61
2022/07/15 03:57:48;;;;;;;;;;;24.50;43.90;;;;;;5034261;28;19909;-60
2022/07/15 04:00:14;;;;;;;;;;;24.40;43.60;;;;;;5034678;28;19921;-61
2022/07/15 04:02:40;;;;;;;;;;;24.50;44.00;;;;;;5034304;28;19909;-60
2022/07/15 04:05:06;;;;;;;;;;;24.50;43.30;;;;;;5034143;28;19917;-61
2022/07/15 04:07:32;;;;;;;;;;;24.50;43.50;;;;;;5019966;28;19956;-59
2022/07/15 04:09:57;;;;;;;;;;;24.40;43.10;;;;;;5034250;28;19967;-60
2022/07/15 04:12:23;;;;;;;;;;;24.40;43.20;;;;;;5034064;28;19921;-61
2022/07/15 04:14:48;;;;;;;;;;;24.50;43.60;;;;;;5033869;28;19910;-59
2022/07/15 04:17:14;;;;;;;;;;;24.50;43.30;;;;;;5023491;28;19967;-61
2022/07/15 04:19:40;;;;;;;;;;;24.50;42.80;;;;;;5031322;28;19913;-59
2022/07/15 04:22:05;;;;;;;;;;;24.50;42.90;;;;;;5033977;28;19909;-59
2022/07/15 04:24:31;;;;;;;;;;;24.60;42.20;;;;;;5033618;28;19921;-59
2022/07/15 04:26:56;;;;;;;;;;;24.60;42.40;;;;;;5034017;28;19997;-60
2022/07/15 04:29:22;;;;;;;;;;;24.70;42.60;;;;;;5033918;28;19909;-61
2022/07/15 04:31:47;;;;;;;;;;;24.70;41.80;;;;;;5033689;28;19919;-63
2022/07/15 04:34:13;;;;;;;;;;;24.70;41.70;;;;;;5033564;28;19909;-64
2022/07/15 04:36:39;;;;;;;;;;;24.70;41.80;;;;;;5033429;28;20405;-61
2022/07/15 04:39:04;;;;;;;;;;;24.70;42.10;;;;;;5033915;28;19909;-60
2022/07/15 04:41:30;;;;;;;;;;;24.60;41.80;;;;;;5033498;28;20369;-58
2022/07/15 04:43:55;;;;;;;;;;;24.40;42.30;;;;;;5032705;28;19913;-58
2022/07/15 04:46:21;;;;;;;;;;;24.50;42.70;;;;;;5033387;28;20015;-59
2022/07/15 04:51:31;;;;;;;;;;;24.60;43.10;;;;;;5033187;28;20410;-60
2022/07/15 04:53:56;;;;;;;;;;;24.70;42.30;;;;;;5032871;28;19909;-62
2022/07/15 04:56:22;;;;;;;;;;;24.80;42.50;;;;;;5033244;28;20384;-61
2022/07/15 04:58:47;;;;;;;;;;;24.80;42.00;;;;;;5033071;28;20029;-60
2022/07/15 05:01:13;;;;;;;;;;;24.80;42.00;;;;;;5033005;28;19928;-61
2022/07/15 05:03:39;;;;;;;;;;;24.70;42.50;;;;;;5033031;28;19913;-58
2022/07/15 05:06:05;;;;;;;;;;;24.50;42.90;;;;;;5029947;28;19925;-59
2022/07/15 05:08:30;;;;;;;;;;;24.40;43.00;;;;;;5022399;28;19913;-58
2022/07/15 05:10:56;;;;;;;;;;;24.50;43.90;;;;;;5032998;28;19943;-59
2022/07/15 05:13:21;;;;;;;;;;;24.60;44.10;;;;;;5033279;28;20276;-58
2022/07/15 05:15:47;;;;;;;;;;;24.50;44.50;;;;;;5033207;28;19913;-59
2022/07/15 05:18:12;;;;;;;;;;;24.50;45.10;;;;;;5033059;28;19913;-57
2022/07/15 05:20:38;;;;;;;;;;;24.50;45.60;;;;;;5032894;28;19909;-60
2022/07/15 05:23:03;;;;;;;;;;;24.50;45.70;;;;;;5032778;28;20365;-56
2022/07/15 05:25:29;;;;;;;;;;;24.40;46.20;;;;;;5032791;28;19975;-56
2022/07/15 05:27:56;;;;;;;;;;;24.40;46.40;;;;;;5032570;28;19935;-58
2022/07/15 05:30:22;;;;;;;;;;;24.40;45.70;;;;;;5032779;28;19933;-58
2022/07/15 05:32:47;;;;;;;;;;;24.50;46.10;;;;;;5032594;28;19967;-57
2022/07/15 05:35:17;;;;;;;;;;;24.50;46.10;;;;;;5032326;28;20384;-60
2022/07/15 05:37:42;;;;;;;;;;;24.50;46.00;;;;;;5032504;28;19928;-60
2022/07/15 05:40:09;;;;;;;;;;;24.60;45.60;;;;;;5032483;28;19910;-58
2022/07/15 05:42:34;;;;;;;;;;;24.60;45.30;;;;;;5032876;28;19916;-57
2022/07/15 05:45:00;;;;;;;;;;;24.70;44.90;;;;;;5032258;28;20301;-58
2022/07/15 05:47:26;;;;;;;;;;;24.80;45.50;;;;;;5032291;28;19920;-58
2022/07/15 05:49:52;;;;;;;;;;;25.30;44.40;;;;;;5032602;28;19913;-60
2022/07/15 05:52:18;;;;;;;;;;;25.80;43.00;;;;;;5006623;28;19920;-60
2022/07/15 05:54:43;;;;;;;;;;;26.40;41.80;;;;;;5011539;28;20346;-59
2022/07/15 05:57:09;;;;;;;;;;;27.00;41.40;;;;;;5011591;28;20269;-59
2022/07/15 05:59:35;;;;;;;;;;;27.40;39.90;;;;;;5011355;28;19930;-59
2022/07/15 06:02:00;;;;;;;;;;;27.80;39.50;;;;;;5011308;28;19909;-60
2022/07/15 06:04:27;;;;;;;;;;;28.20;39.10;;;;;;5011530;28;20384;-60
2022/07/15 06:06:53;;;;;;;;;;;28.50;38.10;;;;;;5014969;28;19918;-59
2022/07/15 06:09:19;;;;;;;;;;;28.80;38.10;;;;;;5011511;28;20000;-59
2022/07/15 06:11:45;;;;;;;;;;;29.00;37.20;;;;;;5011598;28;20123;-60
2022/07/15 06:14:10;;;;;;;;;;;29.20;37.20;;;;;;4998087;28;20450;-59
2022/07/15 06:16:37;;;;;;;;;;;29.50;37.30;;;;;;5000872;28;19929;-60
2022/07/15 06:19:03;;;;;;;;;;;29.70;37.70;;;;;;5010530;28;19936;-58
2022/07/15 06:21:29;;;;;;;;;;;29.80;36.50;;;;;;5032942;28;20361;-61
2022/07/15 06:23:55;;;;;;;;;;;30.10;35.90;;;;;;5033790;28;20035;-59
2022/07/15 06:26:21;;;;;;;;;;;30.20;36.10;;;;;;5032926;28;19963;-60
2022/07/15 06:28:47;;;;;;;;;;;30.40;36.50;;;;;;5032925;28;19909;-59
2022/07/15 06:31:12;;;;;;;;;;;30.60;36.30;;;;;;5032078;28;20349;-60
2022/07/15 06:33:38;;;;;;;;;;;30.70;35.90;;;;;;5032185;28;19917;-60
2022/07/15 06:36:03;;;;;;;;;;;30.80;34.30;;;;;;5031980;28;19949;-59
2022/07/15 06:38:30;;;;;;;;;;;30.90;34.00;;;;;;5032208;28;19944;-59
2022/07/15 06:40:56;;;;;;;;;;;31.00;33.90;;;;;;5032149;28;19909;-59
2022/07/15 06:43:21;;;;;;;;;;;31.20;34.10;;;;;;5031623;28;20020;-59
2022/07/15 06:45:48;;;;;;;;;;;31.20;33.90;;;;;;5031654;28;19936;-59
2022/07/15 06:48:14;;;;;;;;;;;31.30;33.10;;;;;;5031762;28;19920;-60
2022/07/15 06:50:39;;;;;;;;;;;31.30;33.30;;;;;;5031802;28;19909;-60
2022/07/15 06:53:05;;;;;;;;;;;31.20;33.90;;;;;;5031592;28;19917;-60
2022/07/15 06:55:30;;;;;;;;;;;31.30;32.80;;;;;;5031658;28;20355;-59
2022/07/15 06:57:56;;;;;;;;;;;31.30;32.70;;;;;;5031433;28;19916;-58
2022/07/15 07:00:21;;;;;;;;;;;31.20;32.50;;;;;;5031464;28;19920;-58
2022/07/15 07:02:47;;;;;;;;;;;31.20;33.00;;;;;;5031655;28;20015;-57
2022/07/15 07:05:13;;;;;;;;;;;31.20;32.90;;;;;;5031279;28;20327;-58
2022/07/15 07:07:38;;;;;;;;;;;31.30;32.70;;;;;;5017684;28;19914;-58
2022/07/15 07:10:04;;;;;;;;;;;31.30;32.20;;;;;;5031565;28;20324;-58
2022/07/15 07:12:30;;;;;;;;;;;31.30;31.90;;;;;;5031413;28;19909;-59
2022/07/15 07:14:55;;;;;;;;;;;31.40;31.60;;;;;;5031497;28;20384;-59
2022/07/15 07:17:21;;;;;;;;;;;31.40;31.70;;;;;;5034613;28;20000;-59
2022/07/15 07:19:46;;;;;;;;;;;31.50;31.80;;;;;;5035095;28;20373;-58
2022/07/15 07:22:12;;;;;;;;;;;31.60;31.50;;;;;;5035283;28;20389;-59
2022/07/15 07:24:38;;;;;;;;;;;31.60;30.90;;;;;;5034719;28;20301;-58
2022/07/15 07:27:04;;;;;;;;;;;31.60;31.20;;;;;;5034972;28;19916;-60
2022/07/15 07:29:30;;;;;;;;;;;31.60;31.10;;;;;;5034949;28;19916;-58
2022/07/15 07:31:55;;;;;;;;;;;31.60;31.50;;;;;;5035131;28;19917;-59
2022/07/15 07:34:21;;;;;;;;;;;31.60;31.70;;;;;;5034829;28;20374;-60
2022/07/15 07:36:46;;;;;;;;;;;31.40;32.20;;;;;;5034806;28;19909;-59
2022/07/15 07:39:13;;;;;;;;;;;31.60;32.50;;;;;;5034894;28;19920;-59
2022/07/15 07:41:39;;;;;;;;;;;31.70;32.60;;;;;;5034624;28;19909;-59
2022/07/15 07:44:05;;;;;;;;;;;31.80;33.10;;;;;;5034555;28;19917;-58
2022/07/15 07:46:31;;;;;;;;;;;31.80;32.70;;;;;;5034720;28;19916;-58
2022/07/15 07:48:56;;;;;;;;;;;31.80;32.90;;;;;;5034500;28;20284;-58
2022/07/15 07:51:22;;;;;;;;;;;31.80;32.80;;;;;;5034487;28;19913;-59
2022/07/15 07:53:47;;;;;;;;;;;31.90;32.70;;;;;;5034386;28;19909;-59
2022/07/15 07:56:13;;;;;;;;;;;32.00;32.60;;;;;;5034456;28;19960;-59
2022/07/15 07:58:39;;;;;;;;;;;32.10;32.30;;;;;;5034129;28;20047;-58
2022/07/15 08:01:05;;;;;;;;;;;32.10;32.10;;;;;;5034224;28;19959;-58
2022/07/15 08:03:30;;;;;;;;;;;32.20;32.30;;;;;;5034323;28;19913;-59
2022/07/15 08:05:56;;;;;;;;;;;32.30;32.40;;;;;;5032094;28;19963;-59
2022/07/15 08:08:22;;;;;;;;;;;32.30;32.10;;;;;;5024721;28;19909;-58
2022/07/15 08:10:50;;;;;;;;;;;32.30;32.10;;;;;;5036262;28;19915;-59
2022/07/15 08:13:16;;;;;;;;;;;32.40;32.10;;;;;;5034056;28;20023;-60
2022/07/15 08:15:42;;;;;;;;;;;32.40;31.90;;;;;;5034016;28;19913;-60
2022/07/15 08:18:08;;;;;;;;;;;32.40;30.80;;;;;;5033943;28;19913;-59
2022/07/15 08:20:33;;;;;;;;;;;32.40;30.80;;;;;;5034054;28;19909;-59
2022/07/15 08:22:59;;;;;;;;;;;32.50;31.80;;;;;;5033926;28;20009;-58
2022/07/15 08:25:29;;;;;;;;;;;32.50;33.10;;;;;;5033773;28;20404;-59
2022/07/15 08:27:55;;;;;;;;;;;32.50;33.00;;;;;;5032889;28;19956;-59
2022/07/15 08:30:20;;;;;;;;;;;32.40;32.40;;;;;;5033327;28;19948;-61
2022/07/15 08:32:46;;;;;;;;;;;32.30;32.60;;;;;;5033567;28;19931;-58
2022/07/15 08:35:11;;;;;;;;;;;32.10;32.40;;;;;;5032597;28;19909;-58
2022/07/15 08:37:37;;;;;;;;;;;32.00;32.70;;;;;;5033579;28;19913;-62
2022/07/15 08:40:07;;;;;;;;;;;31.80;33.10;;;;;;5033736;28;19909;-61
2022/07/15 08:42:33;;;;;;;;;;;31.60;33.50;;;;;;5033700;28;19920;-62
2022/07/15 08:44:59;;;;;;;;;;;31.50;33.40;;;;;;5033329;28;20308;-59
2022/07/15 08:47:24;;;;;;;;;;;31.30;33.30;;;;;;5033588;28;19909;-60
2022/07/15 08:49:54;;;;;;;;;;;31.20;31.80;;;;;;5033334;28;19909;-60
2022/07/15 08:52:19;;;;;;;;;;;31.10;31.60;;;;;;5033476;28;19909;-59
2022/07/15 08:54:45;;;;;;;;;;;30.90;30.50;;;;;;5033402;28;19917;-60
2022/07/15 08:57:11;;;;;;;;;;;31.00;32.00;;;;;;5033101;28;20367;-64
2022/07/15 08:59:36;;;;;;;;;;;31.00;33.10;;;;;;5033329;28;19925;-59
2022/07/15 09:02:02;;;;;;;;;;;31.10;32.70;;;;;;5033137;28;20385;-59
2022/07/15 09:04:27;;;;;;;;;;;31.20;32.20;;;;;;5033088;28;20023;-60
2022/07/15 09:06:53;;;;;;;;;;;31.30;32.60;;;;;;5023354;28;20358;-60
2022/07/15 09:09:22;;;;;;;;;;;31.30;32.10;;;;;;5029535;28;19913;-60
2022/07/15 09:11:54;;;;;;;;;;;31.30;32.30;;;;;;5032893;28;19913;-60
2022/07/15 09:14:21;;;;;;;;;;;31.30;31.70;;;;;;4995117;28;19918;-59
2022/07/15 09:16:46;;;;;;;;;;;31.30;31.40;;;;;;5006254;28;19914;-59
2022/07/15 09:19:12;;;;;;;;;;;31.30;32.40;;;;;;5011904;28;20399;-59
2022/07/15 09:21:42;;;;;;;;;;;31.30;32.20;;;;;;5012092;28;20348;-58
2022/07/15 09:24:19;;;;;;;;;;;31.40;32.80;;;;;;5012421;28;19967;-60
2022/07/15 09:26:45;;;;;;;;;;;31.40;32.80;;;;;;5013562;28;19987;-59
2022/07/15 09:35:03;;;;;;;;;;;31.40;32.30;;;;;;5032902;28;20087;-60
2022/07/15 09:37:29;;;;;;;;;;;31.40;32.90;;;;;;5032841;28;19952;-60
2022/07/15 09:39:56;;;;;;;;;;;31.40;33.30;;;;;;5032671;28;20401;-60
2022/07/15 09:42:21;;;;;;;;;;;31.40;33.90;;;;;;5000953;28;19921;-60
2022/07/15 09:44:47;;;;;;;;;;;31.40;33.40;;;;;;4993821;28;19928;-61
2022/07/15 09:47:17;;;;;;;;;;;31.40;34.10;;;;;;5010432;28;19910;-59
2022/07/15 09:49:43;;;;;;;;;;;31.40;34.20;;;;;;5011604;28;19960;-61
2022/07/15 09:52:09;;;;;;;;;;;31.30;34.30;;;;;;5011693;28;19910;-63
2022/07/15 09:54:37;;;;;;;;;;;31.30;34.40;;;;;;5011646;28;19913;-61
2022/07/15 09:57:03;;;;;;;;;;;31.20;34.30;;;;;;5011636;28;19913;-60
2022/07/15 09:59:29;;;;;;;;;;;31.30;34.70;;;;;;5010987;28;20365;-60
2022/07/15 10:01:55;;;;;;;;;;;31.20;33.80;;;;;;5015685;28;19914;-59
2022/07/15 10:04:22;;;;;;;;;;;31.20;33.70;;;;;;5013974;28;19984;-57
2022/07/15 10:06:48;;;;;;;;;;;31.10;33.70;;;;;;5011932;28;19913;-61
2022/07/15 10:09:14;;;;;;;;;;;31.10;33.80;;;;;;5013574;28;19940;-61
2022/07/15 10:11:46;;;;;;;;;;;31.00;33.80;;;;;;5011453;28;20420;-61
2022/07/15 10:14:30;;;;;;;;;;;31.00;34.80;;;;;;5011266;28;19956;-64
2022/07/15 10:16:59;;;;;;;;;;;30.90;34.50;;;;;;5011490;28;20584;-63
2022/07/15 10:19:33;;;;;;;;;;;30.90;34.80;;;;;;5011905;28;19913;-61
2022/07/15 10:22:13;;;;;;;;;;;30.90;34.30;;;;;;5006429;28;19916;-68
2022/07/15 10:25:06;;;;;;;;;;;30.90;34.50;;;;;;5031823;28;20336;-58
2022/07/15 10:27:49;;;;;;;;;;;30.90;34.60;;;;;;5032037;28;19917;-60
2022/07/15 10:30:19;;;;;;;;;;;30.90;34.80;;;;;;5031961;28;19916;-60
2022/07/15 10:33:02;;;;;;;;;;;30.80;34.60;;;;;;5032346;28;19909;-62
2022/07/15 10:35:42;;;;;;;;;;;30.80;34.60;;;;;;5016126;28;20277;-60
2022/07/15 10:38:19;;;;;;;;;;;30.80;34.80;;;;;;5007172;28;19917;-59
2022/07/15 10:41:01;;;;;;;;;;;30.80;34.50;;;;;;5004328;28;20001;-58
2022/07/15 10:43:43;;;;;;;;;;;30.70;34.30;;;;;;5001095;28;19916;-56
2022/07/15 10:46:17;;;;;;;;;;;30.70;34.10;;;;;;4997567;28;20395;-58
2022/07/15 10:48:43;;;;;;;;;;;30.70;34.00;;;;;;5021717;28;20258;-58
2022/07/15 10:51:08;;;;;;;;;;;30.60;34.00;;;;;;4997199;28;20294;-58
2022/07/15 10:53:42;;;;;;;;;;;30.60;34.00;;;;;;5015759;28;19913;-59
2022/07/15 10:56:26;;;;;;;;;;;30.60;34.60;;;;;;5018420;28;19922;-60
2022/07/15 10:59:07;;;;;;;;;;;30.60;35.40;;;;;;5005096;28;20297;-60
2022/07/15 11:01:33;;;;;;;;;;;30.70;37.20;;;;;;5014849;28;19914;-59
2022/07/15 11:04:11;;;;;;;;;;;30.70;34.20;;;;;;5015217;28;19968;-59
2022/07/15 11:06:55;;;;;;;;;;;30.70;33.90;;;;;;5018369;28;19914;-59
2022/07/15 11:09:40;;;;;;;;;;;30.70;34.00;;;;;;5015069;28;20246;-60
2022/07/15 11:12:05;;;;;;;;;;;30.80;33.60;;;;;;5014917;28;20382;-59
2022/07/15 11:14:42;;;;;;;;;;;30.80;34.00;;;;;;5013850;28;20060;-59
2022/07/15 11:17:08;;;;;;;;;;;30.80;34.80;;;;;;5014406;28;19920;-60
2022/07/15 11:19:34;;;;;;;;;;;30.80;32.80;;;;;;4997257;28;19913;-59
2022/07/15 11:22:03;;;;;;;;;;;30.90;31.70;;;;;;5014918;28;20290;-57
2022/07/15 11:24:29;;;;;;;;;;;30.80;30.80;;;;;;5014752;28;20271;-59
2022/07/15 11:26:54;;;;;;;;;;;30.70;29.50;;;;;;5015620;28;19924;-59
2022/07/15 11:29:20;;;;;;;;;;;30.60;30.00;;;;;;5014787;28;20369;-58
2022/07/15 11:31:47;;;;;;;;;;;30.60;30.20;;;;;;5016321;28;20399;-58
2022/07/15 11:34:13;;;;;;;;;;;30.60;31.60;;;;;;5015337;28;19967;-59
2022/07/15 11:36:38;;;;;;;;;;;30.60;32.20;;;;;;5014641;28;19917;-62
2022/07/15 11:39:04;;;;;;;;;;;30.60;33.00;;;;;;5014291;28;19951;-59
2022/07/15 11:44:29;;;;;;;;;;;30.60;32.40;;;;;;5011081;28;19929;-60
2022/07/15 11:46:55;;;;;;;;;;;30.60;32.30;;;;;;5003705;28;20063;-59
2022/07/15 11:49:43;;;;;;;;;;;30.60;32.00;;;;;;5010473;28;19913;-58
2022/07/15 11:52:22;;;;;;;;;;;30.60;31.80;;;;;;5011700;28;20037;-60
2022/07/15 11:54:48;;;;;;;;;;;30.60;31.20;;;;;;5017327;28;19973;-58
2022/07/15 11:57:14;;;;;;;;;;;30.60;30.20;;;;;;5009032;28;20068;-58
2022/07/15 11:59:40;;;;;;;;;;;30.70;30.90;;;;;;5014910;28;19936;-60
2022/07/15 12:02:10;;;;;;;;;;;30.60;29.90;;;;;;5012747;28;19913;-60
2022/07/15 12:04:36;;;;;;;;;;;30.70;29.80;;;;;;5013055;28;19921;-59
2022/07/15 12:07:02;;;;;;;;;;;30.60;29.50;;;;;;5013284;28;19929;-59
2022/07/15 12:09:44;;;;;;;;;;;30.60;30.70;;;;;;4997748;28;19914;-58
2022/07/15 12:12:10;;;;;;;;;;;30.60;33.00;;;;;;4994933;28;19910;-58
2022/07/15 12:14:36;;;;;;;;;;;30.60;32.40;;;;;;4994258;28;19932;-59
2022/07/15 12:17:01;;;;;;;;;;;30.60;33.90;;;;;;4996762;28;19910;-58
2022/07/15 12:19:28;;;;;;;;;;;30.60;33.20;;;;;;4997587;28;20665;-60
2022/07/15 12:21:56;;;;;;;;;;;30.50;34.70;;;;;;4999497;28;19922;-58
2022/07/15 12:24:41;;;;;;;;;;;30.50;34.70;;;;;;5000011;28;19960;-59
2022/07/15 12:27:07;;;;;;;;;;;30.40;34.60;;;;;;5009004;28;19918;-58
2022/07/15 12:29:33;;;;;;;;;;;30.40;35.90;;;;;;5006346;28;19909;-57
2022/07/15 12:31:59;;;;;;;;;;;30.30;35.20;;;;;;5004520;28;19909;-57
2022/07/15 12:34:44;;;;;;;;;;;30.30;35.10;;;;;;5009614;28;19916;-58
2022/07/15 12:37:09;;;;;;;;;;;30.30;34.60;;;;;;5006011;28;19960;-57
2022/07/15 12:39:52;;;;;;;;;;;30.40;35.00;;;;;;4999998;28;19941;-58
2022/07/15 12:42:18;;;;;;;;;;;30.30;35.90;;;;;;4999625;28;19929;-58
2022/07/15 12:44:43;;;;;;;;;;;30.30;35.40;;;;;;5003265;28;20364;-58
2022/07/15 12:47:09;;;;;;;;;;;30.30;33.90;;;;;;5001505;28;19917;-58
2022/07/15 12:49:50;;;;;;;;;;;30.30;31.80;;;;;;5002554;28;19969;-59
2022/07/15 12:52:36;;;;;;;;;;;30.20;33.80;;;;;;5010354;28;19948;-59
2022/07/15 12:55:15;;;;;;;;;;;30.20;35.10;;;;;;5009827;28;20040;-59
2022/07/15 12:57:41;;;;;;;;;;;30.30;34.20;;;;;;5011971;28;19916;-58
2022/07/15 13:00:07;;;;;;;;;;;30.30;33.50;;;;;;4971149;28;19922;-60
2022/07/15 13:02:53;;;;;;;;;;;30.30;31.90;;;;;;4973474;28;19914;-60
2022/07/15 13:05:18;;;;;;;;;;;30.40;30.10;;;;;;4973052;28;19925;-61
2022/07/15 13:07:44;;;;;;;;;;;30.30;31.40;;;;;;4970244;28;20329;-58
2022/07/15 13:10:09;;;;;;;;;;;30.30;30.30;;;;;;4973283;28;20001;-57
2022/07/15 13:12:35;;;;;;;;;;;30.40;30.40;;;;;;4973446;28;19917;-58
2022/07/15 13:15:00;;;;;;;;;;;30.40;30.60;;;;;;4972813;28;19910;-58
2022/07/15 13:17:26;;;;;;;;;;;30.40;30.80;;;;;;4973415;28;19918;-59
2022/07/15 13:19:51;;;;;;;;;;;30.50;28.80;;;;;;4973151;28;20354;-58
2022/07/15 13:22:17;;;;;;;;;;;30.50;28.70;;;;;;4961418;28;19911;-59
2022/07/15 13:24:42;;;;;;;;;;;30.50;28.60;;;;;;4964414;28;20294;-57
2022/07/15 13:27:08;;;;;;;;;;;30.50;28.40;;;;;;4993586;28;20000;-57
2022/07/15 13:29:34;;;;;;;;;;;30.50;29.10;;;;;;4993296;28;19914;-56
2022/07/15 13:31:59;;;;;;;;;;;30.50;29.00;;;;;;4993236;28;19909;-56
2022/07/15 13:34:25;;;;;;;;;;;30.60;27.80;;;;;;4993177;28;20247;-60
2022/07/15 13:36:50;;;;;;;;;;;30.60;28.10;;;;;;4993540;28;19993;-59
2022/07/15 13:39:16;;;;;;;;;;;30.60;26.80;;;;;;4992144;28;19914;-58
2022/07/15 13:41:42;;;;;;;;;;;30.60;27.40;;;;;;4993162;28;20309;-59
2022/07/15 13:44:08;;;;;;;;;;;30.60;26.20;;;;;;4994196;28;19976;-59
2022/07/15 13:46:34;;;;;;;;;;;30.60;26.10;;;;;;4992519;28;19913;-58
2022/07/15 13:48:59;;;;;;;;;;;30.60;26.10;;;;;;4993213;28;19920;-58
2022/07/15 13:51:25;;;;;;;;;;;30.50;27.00;;;;;;4991894;28;20378;-58
2022/07/15 13:53:51;;;;;;;;;;;30.60;25.50;;;;;;4992981;28;19914;-58
2022/07/15 13:56:17;;;;;;;;;;;30.60;25.40;;;;;;4994255;28;19914;-59
2022/07/15 13:58:43;;;;;;;;;;;30.60;26.00;;;;;;5011110;28;19928;-61
2022/07/15 14:01:09;;;;;;;;;;;30.60;26.10;;;;;;5034308;28;19916;-62
2022/07/15 14:03:34;;;;;;;;;;;30.60;25.90;;;;;;5013966;28;19921;-55
2022/07/15 14:06:00;;;;;;;;;;;30.60;25.20;;;;;;5009683;28;19982;-59
2022/07/15 14:08:25;;;;;;;;;;;30.60;24.80;;;;;;5012742;28;19914;-55
2022/07/15 14:10:51;;;;;;;;;;;30.60;24.30;;;;;;5012467;28;19972;-62
2022/07/15 14:13:17;;;;;;;;;;;30.60;23.90;;;;;;5011634;28;19920;-56
2022/07/15 14:15:42;;;;;;;;;;;30.70;24.80;;;;;;5011290;28;19909;-56
2022/07/15 14:18:08;;;;;;;;;;;30.80;23.60;;;;;;4996856;28;20405;-57
2022/07/15 14:20:34;;;;;;;;;;;31.00;23.50;;;;;;4999556;28;19913;-56
2022/07/15 14:23:00;;;;;;;;;;;31.00;24.20;;;;;;5011324;28;19918;-56
2022/07/15 14:25:25;;;;;;;;;;;31.00;23.40;;;;;;4997182;28;19929;-63
2022/07/15 14:27:51;;;;;;;;;;;31.10;23.10;;;;;;4995391;28;20292;-56
2022/07/15 14:30:17;;;;;;;;;;;31.20;22.60;;;;;;4994494;28;19917;-57